sensor_id;sensor_type;location;lat;lon;timestamp;P1;durP1;ratioP1;P2;durP2;ratioP2
11431;SDS011;5772;50.940;6.782;2023-07-29T00:00:56;25.90;;;24.90;;
11431;SDS011;5772;50.940;6.782;2023-07-29T00:03:22;27.38;;;26.17;;
11431;SDS011;5772;50.940;6.782;2023-07-29T00:05:47;26.67;;;25.57;;
11431;SDS011;5772;50.940;6.782;2023-07-29T00:08:14;25.65;;;24.65;;
11431;SDS011;5772;50.940;6.782;2023-07-29T00:10:39;26.67;;;25.58;;
11431;SDS011;5772;50.940;6.782;2023-07-29T00:13:05;27.60;;;26.40;;
11431;SDS011;5772;50.940;6.782;2023-07-29T00:15:30;29.23;;;28.00;;
11431;SDS011;5772;50.940;6.782;2023-07-29T00:17:56;27.73;;;26.63;;
11431;SDS011;5772;50.940;6.782;2023-07-29T00:20:21;26.73;;;25.55;;
11431;SDS011;5772;50.940;6.782;2023-07-29T00:22:47;28.20;;;27.10;;
11431;SDS011;5772;50.940;6.782;2023-07-29T00:25:13;26.40;;;25.17;;
11431;SDS011;5772;50.940;6.782;2023-07-29T00:27:39;25.63;;;24.53;;
11431;SDS011;5772;50.940;6.782;2023-07-29T00:30:05;23.65;;;22.70;;
11431;SDS011;5772;50.940;6.782;2023-07-29T00:32:31;22.97;;;22.03;;
11431;SDS011;5772;50.940;6.782;2023-07-29T00:34:56;24.50;;;23.40;;
11431;SDS011;5772;50.940;6.782;2023-07-29T00:37:22;24.00;;;23.00;;
11431;SDS011;5772;50.940;6.782;2023-07-29T00:39:47;21.77;;;20.87;;
11431;SDS011;5772;50.940;6.782;2023-07-29T00:42:14;22.43;;;21.53;;
11431;SDS011;5772;50.940;6.782;2023-07-29T00:44:39;23.07;;;21.97;;
11431;SDS011;5772;50.940;6.782;2023-07-29T00:47:05;21.97;;;21.07;;
11431;SDS011;5772;50.940;6.782;2023-07-29T00:49:31;23.23;;;22.23;;
11431;SDS011;5772;50.940;6.782;2023-07-29T00:51:56;22.40;;;21.50;;
11431;SDS011;5772;50.940;6.782;2023-07-29T00:54:21;22.53;;;21.57;;
11431;SDS011;5772;50.940;6.782;2023-07-29T00:56:47;21.50;;;20.60;;
11431;SDS011;5772;50.940;6.782;2023-07-29T00:59:14;22.63;;;21.63;;
11431;SDS011;5772;50.940;6.782;2023-07-29T01:01:39;22.38;;;21.48;;
11431;SDS011;5772;50.940;6.782;2023-07-29T01:04:04;22.60;;;21.60;;
11431;SDS011;5772;50.940;6.782;2023-07-29T01:06:33;21.07;;;20.03;;
11431;SDS011;5772;50.940;6.782;2023-07-29T01:09:01;24.03;;;23.03;;
11431;SDS011;5772;50.940;6.782;2023-07-29T01:11:31;23.33;;;22.00;;
11431;SDS011;5772;50.940;6.782;2023-07-29T01:14:02;23.60;;;22.60;;
11431;SDS011;5772;50.940;6.782;2023-07-29T01:16:32;24.02;;;22.95;;
11431;SDS011;5772;50.940;6.782;2023-07-29T01:19:02;25.30;;;24.25;;
11431;SDS011;5772;50.940;6.782;2023-07-29T01:21:30;24.73;;;23.70;;
11431;SDS011;5772;50.940;6.782;2023-07-29T01:23:59;25.57;;;24.37;;
11431;SDS011;5772;50.940;6.782;2023-07-29T01:26:24;25.50;;;24.45;;
11431;SDS011;5772;50.940;6.782;2023-07-29T01:28:49;25.38;;;24.30;;
11431;SDS011;5772;50.940;6.782;2023-07-29T01:31:16;26.08;;;24.98;;
11431;SDS011;5772;50.940;6.782;2023-07-29T01:33:48;27.10;;;26.00;;
11431;SDS011;5772;50.940;6.782;2023-07-29T01:36:20;26.30;;;25.23;;
11431;SDS011;5772;50.940;6.782;2023-07-29T01:38:47;25.60;;;24.50;;
11431;SDS011;5772;50.940;6.782;2023-07-29T01:41:14;25.38;;;24.38;;
11431;SDS011;5772;50.940;6.782;2023-07-29T01:43:40;27.37;;;25.87;;
11431;SDS011;5772;50.940;6.782;2023-07-29T01:46:05;26.23;;;25.08;;
11431;SDS011;5772;50.940;6.782;2023-07-29T01:48:30;26.75;;;25.60;;
11431;SDS011;5772;50.940;6.782;2023-07-29T01:50:56;28.67;;;27.50;;
11431;SDS011;5772;50.940;6.782;2023-07-29T01:53:21;28.30;;;27.03;;
11431;SDS011;5772;50.940;6.782;2023-07-29T01:55:46;27.83;;;26.67;;
11431;SDS011;5772;50.940;6.782;2023-07-29T01:58:13;26.23;;;25.13;;
11431;SDS011;5772;50.940;6.782;2023-07-29T02:00:38;25.37;;;24.37;;
11431;SDS011;5772;50.940;6.782;2023-07-29T02:03:04;29.83;;;28.63;;
11431;SDS011;5772;50.940;6.782;2023-07-29T02:05:29;27.90;;;26.70;;
11431;SDS011;5772;50.940;6.782;2023-07-29T02:07:54;27.97;;;26.80;;
11431;SDS011;5772;50.940;6.782;2023-07-29T02:10:20;27.23;;;26.03;;
11431;SDS011;5772;50.940;6.782;2023-07-29T02:12:45;25.37;;;24.37;;
11431;SDS011;5772;50.940;6.782;2023-07-29T02:15:12;28.50;;;27.20;;
11431;SDS011;5772;50.940;6.782;2023-07-29T02:17:37;27.40;;;26.30;;
11431;SDS011;5772;50.940;6.782;2023-07-29T02:20:03;26.17;;;25.10;;
11431;SDS011;5772;50.940;6.782;2023-07-29T02:22:29;32.40;;;31.00;;
11431;SDS011;5772;50.940;6.782;2023-07-29T02:24:54;28.73;;;27.53;;
11431;SDS011;5772;50.940;6.782;2023-07-29T02:27:20;31.80;;;30.33;;
11431;SDS011;5772;50.940;6.782;2023-07-29T02:29:45;29.37;;;28.17;;
11431;SDS011;5772;50.940;6.782;2023-07-29T02:32:12;27.43;;;26.23;;
11431;SDS011;5772;50.940;6.782;2023-07-29T02:34:37;27.23;;;26.13;;
11431;SDS011;5772;50.940;6.782;2023-07-29T02:37:02;28.33;;;27.13;;
11431;SDS011;5772;50.940;6.782;2023-07-29T02:39:28;26.20;;;25.03;;
11431;SDS011;5772;50.940;6.782;2023-07-29T02:41:53;26.43;;;25.23;;
11431;SDS011;5772;50.940;6.782;2023-07-29T02:44:19;26.70;;;25.60;;
11431;SDS011;5772;50.940;6.782;2023-07-29T02:46:44;26.80;;;25.70;;
11431;SDS011;5772;50.940;6.782;2023-07-29T02:49:11;25.77;;;24.77;;
11431;SDS011;5772;50.940;6.782;2023-07-29T02:51:36;27.53;;;26.33;;
11431;SDS011;5772;50.940;6.782;2023-07-29T02:54:01;26.80;;;25.67;;
11431;SDS011;5772;50.940;6.782;2023-07-29T02:56:27;30.60;;;29.30;;
11431;SDS011;5772;50.940;6.782;2023-07-29T02:58:52;27.53;;;26.43;;
11431;SDS011;5772;50.940;6.782;2023-07-29T03:01:17;29.00;;;27.70;;
11431;SDS011;5772;50.940;6.782;2023-07-29T03:03:43;28.73;;;27.53;;
11431;SDS011;5772;50.940;6.782;2023-07-29T03:06:11;30.60;;;29.30;;
11431;SDS011;5772;50.940;6.782;2023-07-29T03:08:38;28.00;;;26.80;;
11431;SDS011;5772;50.940;6.782;2023-07-29T03:11:07;28.37;;;27.17;;
11431;SDS011;5772;50.940;6.782;2023-07-29T03:13:33;26.23;;;24.90;;
11431;SDS011;5772;50.940;6.782;2023-07-29T03:16:04;27.23;;;26.13;;
11431;SDS011;5772;50.940;6.782;2023-07-29T03:18:30;28.37;;;27.17;;
11431;SDS011;5772;50.940;6.782;2023-07-29T03:20:55;27.20;;;26.07;;
11431;SDS011;5772;50.940;6.782;2023-07-29T03:23:22;27.43;;;26.23;;
11431;SDS011;5772;50.940;6.782;2023-07-29T03:25:48;28.17;;;27.07;;
11431;SDS011;5772;50.940;6.782;2023-07-29T03:28:13;29.00;;;27.70;;
11431;SDS011;5772;50.940;6.782;2023-07-29T03:30:39;26.33;;;25.23;;
11431;SDS011;5772;50.940;6.782;2023-07-29T03:33:04;26.70;;;25.60;;
11431;SDS011;5772;50.940;6.782;2023-07-29T03:35:29;27.33;;;26.13;;
11431;SDS011;5772;50.940;6.782;2023-07-29T03:37:55;26.13;;;25.03;;
11431;SDS011;5772;50.940;6.782;2023-07-29T03:40:21;27.73;;;26.63;;
11431;SDS011;5772;50.940;6.782;2023-07-29T03:42:47;27.20;;;26.10;;
11431;SDS011;5772;50.940;6.782;2023-07-29T03:45:12;26.03;;;25.03;;
11431;SDS011;5772;50.940;6.782;2023-07-29T03:47:38;24.93;;;23.87;;
11431;SDS011;5772;50.940;6.782;2023-07-29T03:50:03;26.10;;;25.00;;
11431;SDS011;5772;50.940;6.782;2023-07-29T03:52:29;24.90;;;23.80;;
11431;SDS011;5772;50.940;6.782;2023-07-29T03:54:54;24.47;;;23.47;;
11431;SDS011;5772;50.940;6.782;2023-07-29T03:57:21;25.27;;;24.17;;
11431;SDS011;5772;50.940;6.782;2023-07-29T03:59:46;25.17;;;24.07;;
11431;SDS011;5772;50.940;6.782;2023-07-29T04:02:12;23.97;;;22.97;;
11431;SDS011;5772;50.940;6.782;2023-07-29T04:04:37;24.17;;;23.17;;
11431;SDS011;5772;50.940;6.782;2023-07-29T04:07:02;25.77;;;24.77;;
11431;SDS011;5772;50.940;6.782;2023-07-29T04:09:28;25.80;;;24.50;;
11431;SDS011;5772;50.940;6.782;2023-07-29T04:11:53;26.00;;;24.90;;
11431;SDS011;5772;50.940;6.782;2023-07-29T04:14:20;27.37;;;26.17;;
11431;SDS011;5772;50.940;6.782;2023-07-29T04:16:45;29.37;;;28.07;;
11431;SDS011;5772;50.940;6.782;2023-07-29T04:19:11;28.13;;;26.77;;
11431;SDS011;5772;50.940;6.782;2023-07-29T04:21:36;26.70;;;25.57;;
11431;SDS011;5772;50.940;6.782;2023-07-29T04:24:02;27.43;;;26.23;;
11431;SDS011;5772;50.940;6.782;2023-07-29T04:26:27;29.57;;;28.17;;
11431;SDS011;5772;50.940;6.782;2023-07-29T04:28:52;29.83;;;28.47;;
11431;SDS011;5772;50.940;6.782;2023-07-29T04:31:19;30.83;;;29.37;;
11431;SDS011;5772;50.940;6.782;2023-07-29T04:33:45;30.80;;;29.50;;
11431;SDS011;5772;50.940;6.782;2023-07-29T04:36:10;29.67;;;28.30;;
11431;SDS011;5772;50.940;6.782;2023-07-29T04:38:36;28.13;;;26.93;;
11431;SDS011;5772;50.940;6.782;2023-07-29T04:41:02;28.30;;;26.97;;
11431;SDS011;5772;50.940;6.782;2023-07-29T04:43:27;28.10;;;26.90;;
11431;SDS011;5772;50.940;6.782;2023-07-29T04:45:55;27.40;;;26.20;;
11431;SDS011;5772;50.940;6.782;2023-07-29T04:48:22;29.27;;;27.97;;
11431;SDS011;5772;50.940;6.782;2023-07-29T04:50:47;27.47;;;26.27;;
11431;SDS011;5772;50.940;6.782;2023-07-29T04:53:12;28.87;;;27.57;;
11431;SDS011;5772;50.940;6.782;2023-07-29T04:55:38;27.93;;;26.73;;
11431;SDS011;5772;50.940;6.782;2023-07-29T04:58:03;29.87;;;28.57;;
11431;SDS011;5772;50.940;6.782;2023-07-29T05:00:28;27.30;;;26.10;;
11431;SDS011;5772;50.940;6.782;2023-07-29T05:02:54;29.63;;;28.33;;
11431;SDS011;5772;50.940;6.782;2023-07-29T05:05:20;28.40;;;27.20;;
11431;SDS011;5772;50.940;6.782;2023-07-29T05:07:46;28.00;;;26.67;;
11431;SDS011;5772;50.940;6.782;2023-07-29T05:10:11;25.60;;;24.43;;
11431;SDS011;5772;50.940;6.782;2023-07-29T05:12:36;27.90;;;26.50;;
11431;SDS011;5772;50.940;6.782;2023-07-29T05:15:02;25.93;;;24.80;;
11431;SDS011;5772;50.940;6.782;2023-07-29T05:17:28;25.07;;;23.97;;
11431;SDS011;5772;50.940;6.782;2023-07-29T05:19:53;27.60;;;26.33;;
11431;SDS011;5772;50.940;6.782;2023-07-29T05:22:20;26.73;;;25.50;;
11431;SDS011;5772;50.940;6.782;2023-07-29T05:24:45;25.37;;;24.27;;
11431;SDS011;5772;50.940;6.782;2023-07-29T05:27:11;26.00;;;24.87;;
11431;SDS011;5772;50.940;6.782;2023-07-29T05:29:36;26.57;;;25.37;;
11431;SDS011;5772;50.940;6.782;2023-07-29T05:32:01;23.50;;;22.50;;
11431;SDS011;5772;50.940;6.782;2023-07-29T05:34:27;23.53;;;22.33;;
11431;SDS011;5772;50.940;6.782;2023-07-29T05:36:52;23.97;;;22.87;;
11431;SDS011;5772;50.940;6.782;2023-07-29T05:39:19;23.37;;;22.37;;
11431;SDS011;5772;50.940;6.782;2023-07-29T05:41:44;23.27;;;22.27;;
11431;SDS011;5772;50.940;6.782;2023-07-29T05:44:09;24.13;;;23.13;;
11431;SDS011;5772;50.940;6.782;2023-07-29T05:46:35;25.43;;;23.97;;
11431;SDS011;5772;50.940;6.782;2023-07-29T05:49:00;23.30;;;22.10;;
11431;SDS011;5772;50.940;6.782;2023-07-29T05:51:26;22.67;;;21.67;;
11431;SDS011;5772;50.940;6.782;2023-07-29T05:53:51;22.50;;;21.53;;
11431;SDS011;5772;50.940;6.782;2023-07-29T05:56:18;23.47;;;22.37;;
11431;SDS011;5772;50.940;6.782;2023-07-29T05:58:43;23.03;;;21.83;;
11431;SDS011;5772;50.940;6.782;2023-07-29T06:01:08;24.07;;;22.83;;
11431;SDS011;5772;50.940;6.782;2023-07-29T06:03:34;21.83;;;20.77;;
11431;SDS011;5772;50.940;6.782;2023-07-29T06:05:59;21.43;;;20.53;;
11431;SDS011;5772;50.940;6.782;2023-07-29T06:08:24;21.63;;;20.53;;
11431;SDS011;5772;50.940;6.782;2023-07-29T06:10:50;21.67;;;20.37;;
11431;SDS011;5772;50.940;6.782;2023-07-29T06:13:16;20.50;;;19.67;;
11431;SDS011;5772;50.940;6.782;2023-07-29T06:15:42;20.93;;;20.03;;
11431;SDS011;5772;50.940;6.782;2023-07-29T06:18:07;20.50;;;19.37;;
11431;SDS011;5772;50.940;6.782;2023-07-29T06:20:32;21.30;;;20.30;;
11431;SDS011;5772;50.940;6.782;2023-07-29T06:22:58;21.23;;;20.33;;
11431;SDS011;5772;50.940;6.782;2023-07-29T06:25:23;22.10;;;21.00;;
11431;SDS011;5772;50.940;6.782;2023-07-29T06:27:49;20.10;;;19.20;;
11431;SDS011;5772;50.940;6.782;2023-07-29T06:30:15;18.80;;;18.00;;
11431;SDS011;5772;50.940;6.782;2023-07-29T06:32:41;20.23;;;19.37;;
11431;SDS011;5772;50.940;6.782;2023-07-29T06:35:06;20.30;;;19.40;;
11431;SDS011;5772;50.940;6.782;2023-07-29T06:37:32;20.17;;;19.37;;
11431;SDS011;5772;50.940;6.782;2023-07-29T06:39:57;20.13;;;19.20;;
11431;SDS011;5772;50.940;6.782;2023-07-29T06:42:23;19.40;;;18.30;;
11431;SDS011;5772;50.940;6.782;2023-07-29T06:44:48;18.80;;;18.00;;
11431;SDS011;5772;50.940;6.782;2023-07-29T06:47:15;19.13;;;18.37;;
11431;SDS011;5772;50.940;6.782;2023-07-29T06:49:40;20.30;;;19.30;;
11431;SDS011;5772;50.940;6.782;2023-07-29T06:52:06;20.50;;;19.27;;
11431;SDS011;5772;50.940;6.782;2023-07-29T06:54:31;20.13;;;19.30;;
11431;SDS011;5772;50.940;6.782;2023-07-29T06:56:56;22.10;;;21.10;;
11431;SDS011;5772;50.940;6.782;2023-07-29T06:59:22;20.33;;;19.45;;
11431;SDS011;5772;50.940;6.782;2023-07-29T07:01:47;20.90;;;20.00;;
11431;SDS011;5772;50.940;6.782;2023-07-29T07:04:14;21.00;;;19.95;;
11431;SDS011;5772;50.940;6.782;2023-07-29T07:06:39;20.55;;;19.70;;
11431;SDS011;5772;50.940;6.782;2023-07-29T07:09:05;20.73;;;19.83;;
11431;SDS011;5772;50.940;6.782;2023-07-29T07:11:30;19.80;;;18.80;;
11431;SDS011;5772;50.940;6.782;2023-07-29T07:13:55;19.17;;;18.23;;
11431;SDS011;5772;50.940;6.782;2023-07-29T07:16:21;18.83;;;17.92;;
11431;SDS011;5772;50.940;6.782;2023-07-29T07:18:46;21.75;;;20.45;;
11431;SDS011;5772;50.940;6.782;2023-07-29T07:21:13;24.52;;;23.42;;
11431;SDS011;5772;50.940;6.782;2023-07-29T07:23:38;21.88;;;20.88;;
11431;SDS011;5772;50.940;6.782;2023-07-29T07:26:04;21.90;;;20.90;;
11431;SDS011;5772;50.940;6.782;2023-07-29T07:28:29;20.10;;;19.25;;
11431;SDS011;5772;50.940;6.782;2023-07-29T07:30:54;19.85;;;18.85;;
11431;SDS011;5772;50.940;6.782;2023-07-29T07:33:20;19.20;;;18.15;;
11431;SDS011;5772;50.940;6.782;2023-07-29T07:35:45;18.70;;;17.90;;
11431;SDS011;5772;50.940;6.782;2023-07-29T07:38:12;20.10;;;19.25;;
11431;SDS011;5772;50.940;6.782;2023-07-29T07:40:37;19.23;;;18.42;;
11431;SDS011;5772;50.940;6.782;2023-07-29T07:43:02;19.67;;;18.85;;
11431;SDS011;5772;50.940;6.782;2023-07-29T07:45:28;19.80;;;18.90;;
11431;SDS011;5772;50.940;6.782;2023-07-29T07:47:53;18.90;;;18.10;;
11431;SDS011;5772;50.940;6.782;2023-07-29T07:50:18;20.42;;;19.63;;
11431;SDS011;5772;50.940;6.782;2023-07-29T07:52:44;19.35;;;18.55;;
11431;SDS011;5772;50.940;6.782;2023-07-29T07:55:10;17.23;;;16.42;;
11431;SDS011;5772;50.940;6.782;2023-07-29T07:57:36;16.92;;;16.23;;
11431;SDS011;5772;50.940;6.782;2023-07-29T08:00:02;15.18;;;14.30;;
11431;SDS011;5772;50.940;6.782;2023-07-29T08:02:27;16.00;;;15.30;;
11431;SDS011;5772;50.940;6.782;2023-07-29T08:04:53;18.33;;;17.52;;
11431;SDS011;5772;50.940;6.782;2023-07-29T08:07:18;35.42;;;33.95;;
11431;SDS011;5772;50.940;6.782;2023-07-29T08:09:44;17.65;;;16.85;;
11431;SDS011;5772;50.940;6.782;2023-07-29T08:12:10;20.52;;;19.63;;
11431;SDS011;5772;50.940;6.782;2023-07-29T08:14:36;19.48;;;18.67;;
11431;SDS011;5772;50.940;6.782;2023-07-29T08:17:01;22.02;;;21.13;;
11431;SDS011;5772;50.940;6.782;2023-07-29T08:19:26;28.98;;;27.88;;
11431;SDS011;5772;50.940;6.782;2023-07-29T08:21:52;17.20;;;16.48;;
11431;SDS011;5772;50.940;6.782;2023-07-29T08:24:17;19.83;;;18.92;;
11431;SDS011;5772;50.940;6.782;2023-07-29T08:26:43;36.97;;;35.47;;
11431;SDS011;5772;50.940;6.782;2023-07-29T08:29:09;19.42;;;18.65;;
11431;SDS011;5772;50.940;6.782;2023-07-29T08:31:35;34.53;;;33.03;;
11431;SDS011;5772;50.940;6.782;2023-07-29T08:34:00;16.15;;;15.45;;
11431;SDS011;5772;50.940;6.782;2023-07-29T08:36:25;14.27;;;13.68;;
11431;SDS011;5772;50.940;6.782;2023-07-29T08:38:51;16.33;;;15.63;;
11431;SDS011;5772;50.940;6.782;2023-07-29T08:41:19;25.50;;;24.40;;
11431;SDS011;5772;50.940;6.782;2023-07-29T08:43:47;29.70;;;28.50;;
11431;SDS011;5772;50.940;6.782;2023-07-29T08:46:17;25.25;;;23.85;;
11431;SDS011;5772;50.940;6.782;2023-07-29T08:48:44;27.95;;;26.85;;
11431;SDS011;5772;50.940;6.782;2023-07-29T08:51:09;21.40;;;20.58;;
11431;SDS011;5772;50.940;6.782;2023-07-29T08:53:35;18.02;;;17.30;;
11431;SDS011;5772;50.940;6.782;2023-07-29T08:56:01;22.23;;;21.08;;
11431;SDS011;5772;50.940;6.782;2023-07-29T08:58:26;19.63;;;18.83;;
11431;SDS011;5772;50.940;6.782;2023-07-29T09:00:52;14.43;;;13.82;;
11431;SDS011;5772;50.940;6.782;2023-07-29T09:03:19;16.70;;;16.02;;
11431;SDS011;5772;50.940;6.782;2023-07-29T09:05:45;16.27;;;15.68;;
11431;SDS011;5772;50.940;6.782;2023-07-29T09:08:10;48.97;;;46.90;;
11431;SDS011;5772;50.940;6.782;2023-07-29T09:10:36;25.20;;;24.17;;
11431;SDS011;5772;50.940;6.782;2023-07-29T09:13:01;42.75;;;41.03;;
11431;SDS011;5772;50.940;6.782;2023-07-29T09:15:27;38.03;;;36.50;;
11431;SDS011;5772;50.940;6.782;2023-07-29T09:17:53;29.92;;;28.55;;
11431;SDS011;5772;50.940;6.782;2023-07-29T09:20:24;43.38;;;41.63;;
11431;SDS011;5772;50.940;6.782;2023-07-29T09:22:49;43.90;;;42.13;;
11431;SDS011;5772;50.940;6.782;2023-07-29T09:25:15;36.13;;;34.58;;
11431;SDS011;5772;50.940;6.782;2023-07-29T09:27:40;42.85;;;40.75;;
11431;SDS011;5772;50.940;6.782;2023-07-29T09:30:06;33.15;;;31.70;;
11431;SDS011;5772;50.940;6.782;2023-07-29T09:32:32;22.38;;;21.45;;
11431;SDS011;5772;50.940;6.782;2023-07-29T09:34:58;36.72;;;34.97;;
11431;SDS011;5772;50.940;6.782;2023-07-29T09:37:24;30.60;;;29.40;;
11431;SDS011;5772;50.940;6.782;2023-07-29T09:39:50;36.80;;;35.28;;
11431;SDS011;5772;50.940;6.782;2023-07-29T09:42:18;33.50;;;32.15;;
11431;SDS011;5772;50.940;6.782;2023-07-29T09:44:44;35.03;;;33.58;;
11431;SDS011;5772;50.940;6.782;2023-07-29T09:47:09;22.23;;;21.38;;
11431;SDS011;5772;50.940;6.782;2023-07-29T09:49:35;14.65;;;14.05;;
11431;SDS011;5772;50.940;6.782;2023-07-29T09:52:00;30.50;;;29.25;;
11431;SDS011;5772;50.940;6.782;2023-07-29T09:54:27;31.73;;;30.48;;
11431;SDS011;5772;50.940;6.782;2023-07-29T09:56:52;23.48;;;22.42;;
11431;SDS011;5772;50.940;6.782;2023-07-29T09:59:18;22.73;;;21.67;;
11431;SDS011;5772;50.940;6.782;2023-07-29T10:01:44;19.50;;;18.70;;
11431;SDS011;5772;50.940;6.782;2023-07-29T10:04:09;15.95;;;15.25;;
11431;SDS011;5772;50.940;6.782;2023-07-29T10:06:35;16.88;;;16.17;;
11431;SDS011;5772;50.940;6.782;2023-07-29T10:09:02;16.98;;;16.10;;
11431;SDS011;5772;50.940;6.782;2023-07-29T10:11:28;14.80;;;14.20;;
11431;SDS011;5772;50.940;6.782;2023-07-29T10:13:54;15.25;;;14.55;;
11431;SDS011;5772;50.940;6.782;2023-07-29T10:16:20;19.45;;;18.63;;
11431;SDS011;5772;50.940;6.782;2023-07-29T10:18:46;33.92;;;32.58;;
11431;SDS011;5772;50.940;6.782;2023-07-29T10:21:12;33.50;;;32.13;;
11431;SDS011;5772;50.940;6.782;2023-07-29T10:23:40;36.22;;;34.78;;
11431;SDS011;5772;50.940;6.782;2023-07-29T10:26:09;43.85;;;41.97;;
11431;SDS011;5772;50.940;6.782;2023-07-29T10:28:37;19.17;;;18.35;;
11431;SDS011;5772;50.940;6.782;2023-07-29T10:31:05;20.33;;;19.38;;
11431;SDS011;5772;50.940;6.782;2023-07-29T10:33:30;15.18;;;14.48;;
11431;SDS011;5772;50.940;6.782;2023-07-29T10:35:56;16.63;;;16.02;;
11431;SDS011;5772;50.940;6.782;2023-07-29T10:38:22;16.55;;;15.85;;
11431;SDS011;5772;50.940;6.782;2023-07-29T10:40:50;15.70;;;15.07;;
11431;SDS011;5772;50.940;6.782;2023-07-29T10:43:18;17.98;;;17.17;;
11431;SDS011;5772;50.940;6.782;2023-07-29T10:45:45;15.63;;;15.02;;
11431;SDS011;5772;50.940;6.782;2023-07-29T10:48:11;15.45;;;14.80;;
11431;SDS011;5772;50.940;6.782;2023-07-29T10:50:37;16.73;;;16.02;;
11431;SDS011;5772;50.940;6.782;2023-07-29T10:53:02;16.02;;;15.32;;
11431;SDS011;5772;50.940;6.782;2023-07-29T10:55:29;15.50;;;14.80;;
11431;SDS011;5772;50.940;6.782;2023-07-29T10:58:05;15.38;;;14.77;;
11431;SDS011;5772;50.940;6.782;2023-07-29T11:00:32;16.80;;;16.10;;
11431;SDS011;5772;50.940;6.782;2023-07-29T11:03:00;17.05;;;16.38;;
11431;SDS011;5772;50.940;6.782;2023-07-29T11:05:26;27.08;;;25.98;;
11431;SDS011;5772;50.940;6.782;2023-07-29T11:07:52;29.08;;;27.88;;
11431;SDS011;5772;50.940;6.782;2023-07-29T11:10:17;31.45;;;30.17;;
11431;SDS011;5772;50.940;6.782;2023-07-29T11:12:44;21.73;;;20.42;;
11431;SDS011;5772;50.940;6.782;2023-07-29T11:15:14;18.45;;;17.67;;
11431;SDS011;5772;50.940;6.782;2023-07-29T11:17:41;19.13;;;18.33;;
11431;SDS011;5772;50.940;6.782;2023-07-29T11:20:09;14.15;;;13.57;;
11431;SDS011;5772;50.940;6.782;2023-07-29T11:22:35;23.00;;;22.10;;
11431;SDS011;5772;50.940;6.782;2023-07-29T11:25:01;22.33;;;21.42;;
11431;SDS011;5772;50.940;6.782;2023-07-29T11:27:27;21.52;;;20.65;;
11431;SDS011;5772;50.940;6.782;2023-07-29T11:29:56;19.38;;;18.58;;
11431;SDS011;5772;50.940;6.782;2023-07-29T11:32:21;25.70;;;24.70;;
11431;SDS011;5772;50.940;6.782;2023-07-29T11:34:47;32.90;;;31.52;;
11431;SDS011;5772;50.940;6.782;2023-07-29T11:37:14;23.60;;;22.60;;
11431;SDS011;5772;50.940;6.782;2023-07-29T11:39:39;20.15;;;19.35;;
11431;SDS011;5772;50.940;6.782;2023-07-29T11:42:05;13.88;;;13.27;;
11431;SDS011;5772;50.940;6.782;2023-07-29T11:44:30;15.85;;;15.25;;
11431;SDS011;5772;50.940;6.782;2023-07-29T11:46:56;13.90;;;13.30;;
11431;SDS011;5772;50.940;6.782;2023-07-29T11:49:21;19.33;;;18.52;;
11431;SDS011;5772;50.940;6.782;2023-07-29T11:51:46;17.30;;;16.52;;
11431;SDS011;5772;50.940;6.782;2023-07-29T11:54:13;18.85;;;18.10;;
11431;SDS011;5772;50.940;6.782;2023-07-29T11:56:39;17.02;;;16.35;;
11431;SDS011;5772;50.940;6.782;2023-07-29T11:59:04;14.80;;;14.20;;
11431;SDS011;5772;50.940;6.782;2023-07-29T12:01:29;19.58;;;18.77;;
11431;SDS011;5772;50.940;6.782;2023-07-29T12:03:55;28.75;;;27.65;;
11431;SDS011;5772;50.940;6.782;2023-07-29T12:06:22;16.95;;;16.25;;
11431;SDS011;5772;50.940;6.782;2023-07-29T12:08:47;26.38;;;25.27;;
11431;SDS011;5772;50.940;6.782;2023-07-29T12:11:15;17.35;;;16.65;;
11431;SDS011;5772;50.940;6.782;2023-07-29T12:13:41;15.73;;;15.13;;
11431;SDS011;5772;50.940;6.782;2023-07-29T12:16:06;16.95;;;16.20;;
11431;SDS011;5772;50.940;6.782;2023-07-29T12:18:32;15.80;;;15.13;;
11431;SDS011;5772;50.940;6.782;2023-07-29T12:20:57;14.15;;;13.55;;
11431;SDS011;5772;50.940;6.782;2023-07-29T12:23:24;15.38;;;14.77;;
11431;SDS011;5772;50.940;6.782;2023-07-29T12:25:49;13.98;;;13.38;;
11431;SDS011;5772;50.940;6.782;2023-07-29T12:28:16;14.40;;;13.80;;
11431;SDS011;5772;50.940;6.782;2023-07-29T12:30:41;19.67;;;18.77;;
11431;SDS011;5772;50.940;6.782;2023-07-29T12:33:07;17.10;;;16.30;;
11431;SDS011;5772;50.940;6.782;2023-07-29T12:35:36;14.00;;;13.40;;
11431;SDS011;5772;50.940;6.782;2023-07-29T12:38:01;13.43;;;12.93;;
11431;SDS011;5772;50.940;6.782;2023-07-29T12:40:27;15.43;;;14.73;;
11431;SDS011;5772;50.940;6.782;2023-07-29T12:42:52;14.20;;;13.60;;
11431;SDS011;5772;50.940;6.782;2023-07-29T12:45:19;25.80;;;24.80;;
11431;SDS011;5772;50.940;6.782;2023-07-29T12:47:45;33.58;;;32.20;;
11431;SDS011;5772;50.940;6.782;2023-07-29T12:50:10;31.48;;;30.15;;
11431;SDS011;5772;50.940;6.782;2023-07-29T12:52:36;20.10;;;19.30;;
11431;SDS011;5772;50.940;6.782;2023-07-29T12:55:01;28.75;;;27.58;;
11431;SDS011;5772;50.940;6.782;2023-07-29T12:57:26;27.55;;;26.35;;
11431;SDS011;5772;50.940;6.782;2023-07-29T12:59:52;23.25;;;22.33;;
11431;SDS011;5772;50.940;6.782;2023-07-29T13:02:18;21.00;;;20.00;;
11431;SDS011;5772;50.940;6.782;2023-07-29T13:04:44;17.30;;;16.58;;
11431;SDS011;5772;50.940;6.782;2023-07-29T13:07:09;20.88;;;20.05;;
11431;SDS011;5772;50.940;6.782;2023-07-29T13:09:35;28.30;;;27.20;;
11431;SDS011;5772;50.940;6.782;2023-07-29T13:12:00;27.13;;;26.02;;
11431;SDS011;5772;50.940;6.782;2023-07-29T13:14:26;27.25;;;26.15;;
11431;SDS011;5772;50.940;6.782;2023-07-29T13:16:51;25.27;;;24.15;;
11431;SDS011;5772;50.940;6.782;2023-07-29T13:19:19;18.85;;;18.10;;
11431;SDS011;5772;50.940;6.782;2023-07-29T13:21:44;16.25;;;15.55;;
11431;SDS011;5772;50.940;6.782;2023-07-29T13:24:10;33.55;;;32.08;;
11431;SDS011;5772;50.940;6.782;2023-07-29T13:26:35;30.58;;;29.27;;
11431;SDS011;5772;50.940;6.782;2023-07-29T13:29:00;17.92;;;17.13;;
11431;SDS011;5772;50.940;6.782;2023-07-29T13:31:26;17.55;;;16.85;;
11431;SDS011;5772;50.940;6.782;2023-07-29T13:33:51;31.75;;;30.48;;
11431;SDS011;5772;50.940;6.782;2023-07-29T13:36:18;20.98;;;20.08;;
11431;SDS011;5772;50.940;6.782;2023-07-29T13:38:43;18.70;;;17.90;;
11431;SDS011;5772;50.940;6.782;2023-07-29T13:41:09;17.05;;;16.35;;
11431;SDS011;5772;50.940;6.782;2023-07-29T13:43:34;22.42;;;21.52;;
11431;SDS011;5772;50.940;6.782;2023-07-29T13:45:59;23.80;;;22.80;;
11431;SDS011;5772;50.940;6.782;2023-07-29T13:48:25;19.92;;;18.88;;
11431;SDS011;5772;50.940;6.782;2023-07-29T13:50:50;29.83;;;28.48;;
11431;SDS011;5772;50.940;6.782;2023-07-29T13:53:17;23.25;;;22.25;;
11431;SDS011;5772;50.940;6.782;2023-07-29T13:55:42;23.02;;;22.10;;
11431;SDS011;5772;50.940;6.782;2023-07-29T13:58:07;31.88;;;30.55;;
11431;SDS011;5772;50.940;6.782;2023-07-29T14:00:33;42.45;;;40.78;;
11431;SDS011;5772;50.940;6.782;2023-07-29T14:02:59;52.47;;;50.30;;
11431;SDS011;5772;50.940;6.782;2023-07-29T14:05:24;49.70;;;47.60;;
11431;SDS011;5772;50.940;6.782;2023-07-29T14:07:49;40.53;;;38.75;;
11431;SDS011;5772;50.940;6.782;2023-07-29T14:10:16;52.85;;;50.65;;
11431;SDS011;5772;50.940;6.782;2023-07-29T14:12:42;54.15;;;51.47;;
11431;SDS011;5772;50.940;6.782;2023-07-29T14:15:07;56.08;;;53.70;;
11431;SDS011;5772;50.940;6.782;2023-07-29T14:17:33;37.50;;;35.97;;
11431;SDS011;5772;50.940;6.782;2023-07-29T14:19:58;44.15;;;42.35;;
11431;SDS011;5772;50.940;6.782;2023-07-29T14:22:23;50.70;;;48.55;;
11431;SDS011;5772;50.940;6.782;2023-07-29T14:24:49;53.50;;;51.17;;